Terminal Aerodrome Forecast
Issued by NWS Tampa Bay Area, FL

Home | Current Version | Previous Version | Text Only | Print | Product List | Glossary On
Versions: 1 2 3 4 5 6 7 8 9 10 11 12 13 14 15
000
FTUS42 KTBW 092300
TAFSRQ
TAF
KSRQ 092338Z 1000/1024 VRB04KT P6SM BKN250
     FM101600 34005KT P6SM VCTS SCT035CB BKN250
     FM101800 26008KT P6SM VCTS SCT040CB BKN060=

USA.gov is the U.S. government's official web portal to all federal, state and local government web resources and services.